createdAt,value
2022-10-07T00:00:23.510Z,9.74
2022-10-07T00:01:23.716Z,9.8
2022-10-07T00:02:23.725Z,9.77
2022-10-07T00:03:23.527Z,9.84
2022-10-07T00:04:23.525Z,9.85
2022-10-07T00:05:23.537Z,9.82
2022-10-07T00:06:23.547Z,9.82
2022-10-07T00:07:23.524Z,9.8
2022-10-07T00:08:23.545Z,9.8
2022-10-07T00:09:26.348Z,9.72
2022-10-07T00:10:26.266Z,9.7
2022-10-07T00:11:23.533Z,9.64
2022-10-07T00:12:23.545Z,9.73
2022-10-07T00:13:23.567Z,9.76
2022-10-07T00:14:26.347Z,9.72
2022-10-07T00:15:23.539Z,9.67
2022-10-07T00:16:26.981Z,9.67
2022-10-07T00:17:23.561Z,9.66
2022-10-07T00:18:23.543Z,9.7
2022-10-07T00:19:23.544Z,9.59
2022-10-07T00:20:28.084Z,9.63
2022-10-07T00:21:23.555Z,9.63
2022-10-07T00:22:24.569Z,9.49
2022-10-07T00:23:23.545Z,9.47
2022-10-07T00:24:24.209Z,9.52
2022-10-07T00:25:23.560Z,9.49
2022-10-07T00:26:26.578Z,9.59
2022-10-07T00:27:23.553Z,9.54
2022-10-07T00:28:23.842Z,9.54
2022-10-07T00:29:23.577Z,9.54
2022-10-07T00:30:23.558Z,9.47
2022-10-07T00:31:27.609Z,9.4
2022-10-07T00:32:23.572Z,9.45
2022-10-07T00:33:23.590Z,9.49
2022-10-07T00:34:23.566Z,9.47
2022-10-07T00:35:23.582Z,9.4
2022-10-07T00:36:23.735Z,9.45
2022-10-07T00:37:23.594Z,9.48
2022-10-07T00:38:23.583Z,9.51
2022-10-07T00:39:23.587Z,9.48
2022-10-07T00:40:23.661Z,9.48
2022-10-07T00:41:23.607Z,9.49
2022-10-07T00:42:26.431Z,9.48
2022-10-07T00:43:23.592Z,9.51
2022-10-07T00:44:23.598Z,9.48
2022-10-07T00:45:23.625Z,9.49
2022-10-07T00:46:23.927Z,9.44
2022-10-07T00:47:26.737Z,9.45
2022-10-07T00:48:23.630Z,9.44
2022-10-07T00:49:23.649Z,9.3
2022-10-07T00:50:23.612Z,9.31
2022-10-07T00:51:23.621Z,9.33
2022-10-07T00:52:23.624Z,9.3
2022-10-07T00:53:26.728Z,9.27
2022-10-07T00:54:23.607Z,9.31
2022-10-07T00:55:23.614Z,9.33
2022-10-07T00:56:23.652Z,9.33
2022-10-07T00:57:23.624Z,9.39
2022-10-07T00:58:24.716Z,9.33
2022-10-07T00:59:23.621Z,9.29
2022-10-07T01:00:23.678Z,9.31
2022-10-07T01:01:23.841Z,9.39
2022-10-07T01:02:23.838Z,9.34
2022-10-07T01:03:23.629Z,9.22
2022-10-07T01:04:26.646Z,9.26
2022-10-07T01:05:23.656Z,9.34
2022-10-07T01:06:23.645Z,9.34
2022-10-07T01:07:23.637Z,9.26
2022-10-07T01:08:23.676Z,9.27
2022-10-07T01:09:26.382Z,9.27
2022-10-07T01:10:23.636Z,9.33
2022-10-07T01:11:23.649Z,9.27
2022-10-07T01:12:23.796Z,9.3
2022-10-07T01:13:23.643Z,9.27
2022-10-07T01:14:23.648Z,9.29
2022-10-07T01:15:26.686Z,9.31
2022-10-07T01:16:23.775Z,9.37
2022-10-07T01:17:23.673Z,9.33
2022-10-07T01:18:23.642Z,9.42
2022-10-07T01:19:23.647Z,9.42
2022-10-07T01:20:29.714Z,9.45
2022-10-07T01:21:23.677Z,9.4
2022-10-07T01:22:23.651Z,9.49
2022-10-07T01:23:23.655Z,9.48
2022-10-07T01:24:23.654Z,9.45
2022-10-07T01:25:23.660Z,9.49
2022-10-07T01:26:23.675Z,9.48
2022-10-07T01:27:23.664Z,9.42
2022-10-07T01:28:23.893Z,9.45
2022-10-07T01:29:23.669Z,9.44
2022-10-07T01:30:23.673Z,9.49
2022-10-07T01:31:26.722Z,9.3
2022-10-07T01:32:23.661Z,9.33
2022-10-07T01:33:23.735Z,9.22
2022-10-07T01:34:23.675Z,9.3
2022-10-07T01:35:23.680Z,9.26
2022-10-07T01:36:23.710Z,9.39
2022-10-07T01:37:29.792Z,9.31
2022-10-07T01:38:23.672Z,9.27
2022-10-07T01:39:23.691Z,9.18
2022-10-07T01:40:23.895Z,9.16
2022-10-07T01:41:23.865Z,9.18
2022-10-07T01:42:26.812Z,9.33
2022-10-07T01:43:23.691Z,9.31
2022-10-07T01:44:23.904Z,9.37
2022-10-07T01:45:23.764Z,9.39
2022-10-07T01:46:24.016Z,9.44
2022-10-07T01:47:23.688Z,9.42
2022-10-07T01:48:23.691Z,9.44
2022-10-07T01:49:23.711Z,9.47
2022-10-07T01:50:23.692Z,9.39
2022-10-07T01:53:26.477Z,9.33
2022-10-07T01:54:23.711Z,9.4
2022-10-07T01:55:23.714Z,9.47
2022-10-07T01:56:23.708Z,9.4
2022-10-07T01:57:23.703Z,9.47
2022-10-07T01:58:23.731Z,9.37
2022-10-07T01:59:23.753Z,9.48
2022-10-07T02:00:23.743Z,9.51
2022-10-07T02:01:23.961Z,9.44
2022-10-07T02:02:23.763Z,9.48
2022-10-07T02:03:23.990Z,9.47
2022-10-07T02:04:23.725Z,9.39
2022-10-07T02:05:23.754Z,9.39
2022-10-07T02:06:23.716Z,9.37
2022-10-07T02:07:23.729Z,9.27
2022-10-07T02:08:23.745Z,9.39
2022-10-07T02:09:23.847Z,9.3
2022-10-07T02:10:23.733Z,9.31
2022-10-07T02:11:23.730Z,9.34
2022-10-07T02:12:23.748Z,9.27
2022-10-07T02:13:23.880Z,9.33
2022-10-07T02:14:23.741Z,9.31
2022-10-07T02:15:23.744Z,9.36
2022-10-07T02:16:23.972Z,9.3
2022-10-07T02:17:23.744Z,9.36
2022-10-07T02:18:23.762Z,9.31
2022-10-07T02:19:23.741Z,9.31
2022-10-07T02:20:23.743Z,9.29
2022-10-07T02:21:23.774Z,9.36
2022-10-07T02:22:23.749Z,9.31
2022-10-07T02:23:23.757Z,9.31
2022-10-07T02:24:23.826Z,9.24
2022-10-07T02:25:26.769Z,9.29
2022-10-07T02:26:23.756Z,9.37
2022-10-07T02:27:23.755Z,9.24
2022-10-07T02:28:24.078Z,9.24
2022-10-07T02:29:23.762Z,9.36
2022-10-07T02:30:23.772Z,9.34
2022-10-07T02:31:24.010Z,9.26
2022-10-07T02:32:23.800Z,9.19
2022-10-07T02:33:26.626Z,9.33
2022-10-07T02:34:24.917Z,9.24
2022-10-07T02:35:23.854Z,9.3
2022-10-07T02:36:26.556Z,9.3
2022-10-07T02:37:23.772Z,9.34
2022-10-07T02:38:23.783Z,9.29
2022-10-07T02:39:23.771Z,9.24
2022-10-07T02:40:23.786Z,9.24
2022-10-07T02:41:23.816Z,9.29
2022-10-07T02:42:23.779Z,9.24
2022-10-07T02:43:23.803Z,9.22
2022-10-07T02:44:23.788Z,9.19
2022-10-07T02:45:29.420Z,9.16
2022-10-07T02:46:23.978Z,9.16
2022-10-07T02:47:27.584Z,9.08
2022-10-07T02:48:23.822Z,9.18
2022-10-07T02:49:23.795Z,9.18
2022-10-07T02:50:23.787Z,9.15
2022-10-07T02:51:25.832Z,9.18
2022-10-07T02:52:23.820Z,9.19
2022-10-07T02:53:23.817Z,9.16
2022-10-07T02:54:23.801Z,9.21
2022-10-07T02:55:23.795Z,9.15
2022-10-07T02:56:23.798Z,9.18
2022-10-07T02:57:23.839Z,9.12
2022-10-07T02:58:26.870Z,9.16
2022-10-07T02:59:23.810Z,8.97
2022-10-07T03:00:23.814Z,9.11
2022-10-07T03:01:24.028Z,9.08
2022-10-07T03:02:23.811Z,9.12
2022-10-07T03:03:24.184Z,9.11
2022-10-07T03:04:23.810Z,9.08
2022-10-07T03:05:23.829Z,9.12
2022-10-07T03:06:23.812Z,9.13
2022-10-07T03:07:23.831Z,9.15
2022-10-07T03:08:23.872Z,9.19
2022-10-07T03:09:26.585Z,9.19
2022-10-07T03:10:23.831Z,9.13
2022-10-07T03:11:23.826Z,9.15
2022-10-07T03:12:23.826Z,9.11
2022-10-07T03:13:23.859Z,9.11
2022-10-07T03:14:26.834Z,9.13
2022-10-07T03:15:23.828Z,9.09
2022-10-07T03:16:24.056Z,9.11
2022-10-07T03:17:23.879Z,9.24
2022-10-07T03:18:23.848Z,9.15
2022-10-07T03:19:26.943Z,9.15
2022-10-07T03:20:26.642Z,9.22
2022-10-07T03:21:23.875Z,9.24
2022-10-07T03:22:23.852Z,9.12
2022-10-07T03:23:23.875Z,9.15
2022-10-07T03:24:23.879Z,9.15
2022-10-07T03:25:27.724Z,9.11
2022-10-07T03:26:23.855Z,9.11
2022-10-07T03:27:23.860Z,9.21
2022-10-07T03:28:24.123Z,9.16
2022-10-07T03:29:23.927Z,9.16
2022-10-07T03:30:29.053Z,9.21
2022-10-07T03:31:27.163Z,9.18
2022-10-07T03:32:23.874Z,9.18
2022-10-07T03:33:23.875Z,9.22
2022-10-07T03:34:23.866Z,9.19
2022-10-07T03:35:23.900Z,9.29
2022-10-07T03:36:27.047Z,9.26
2022-10-07T03:37:23.867Z,9.15
2022-10-07T03:38:23.888Z,9.19
2022-10-07T03:39:23.866Z,9.21
2022-10-07T03:40:23.926Z,9.22
2022-10-07T03:41:23.706Z,9.19
2022-10-07T03:42:26.870Z,9.15
2022-10-07T03:43:23.899Z,9.12
2022-10-07T03:44:23.894Z,9.16
2022-10-07T03:45:23.904Z,9.11
2022-10-07T03:46:24.180Z,9.21
2022-10-07T03:47:26.838Z,9.09
2022-10-07T03:48:23.911Z,9.03
2022-10-07T03:49:23.938Z,8.97
2022-10-07T03:50:23.933Z,8.99
2022-10-07T03:51:27.017Z,8.96
2022-10-07T03:52:23.894Z,8.92
2022-10-07T03:53:23.949Z,9.03
2022-10-07T03:54:23.887Z,8.97
2022-10-07T03:55:23.896Z,8.97
2022-10-07T03:56:23.916Z,9
2022-10-07T03:57:23.929Z,8.96
2022-10-07T03:58:28.002Z,8.93
2022-10-07T03:59:23.908Z,8.95
2022-10-07T04:00:23.943Z,9.09
2022-10-07T04:01:24.128Z,9.09
2022-10-07T04:02:23.917Z,9.12
2022-10-07T04:03:24.066Z,9.08
2022-10-07T04:05:23.912Z,9.19
2022-10-07T04:06:23.922Z,9.18
2022-10-07T04:07:23.967Z,9.18
2022-10-07T04:08:26.802Z,9.13
2022-10-07T04:09:26.834Z,9.16
2022-10-07T04:10:23.945Z,9.22
2022-10-07T04:11:23.922Z,9.24
2022-10-07T04:12:23.992Z,9.27
2022-10-07T04:13:23.949Z,9.22
2022-10-07T04:14:23.911Z,9.21
2022-10-07T04:15:23.930Z,9.19
2022-10-07T04:16:24.199Z,9.19
2022-10-07T04:17:23.964Z,9.19
2022-10-07T04:18:23.951Z,9.13
2022-10-07T04:19:23.935Z,9.16
2022-10-07T04:20:26.804Z,9.16
2022-10-07T04:21:23.921Z,9.16
2022-10-07T04:22:23.930Z,9.27
2022-10-07T04:23:23.656Z,9.21
2022-10-07T04:24:23.933Z,9.13
2022-10-07T04:25:23.927Z,9.11
2022-10-07T04:26:23.943Z,9.11
2022-10-07T04:27:54.136Z,9.18
2022-10-07T04:31:24.276Z,9.15
2022-10-07T04:32:23.949Z,9.15
2022-10-07T04:33:23.977Z,9.19
2022-10-07T04:34:23.944Z,9.15
2022-10-07T04:35:23.959Z,9.19
2022-10-07T04:36:24.192Z,9.19
2022-10-07T04:37:23.947Z,9.19
2022-10-07T04:38:28.711Z,9.22
2022-10-07T04:39:33.312Z,9.27
2022-10-07T04:40:24.076Z,9.11
2022-10-07T04:41:23.978Z,9.19
2022-10-07T04:42:23.974Z,9.16
2022-10-07T04:43:24.029Z,9.21
2022-10-07T04:44:26.882Z,9.12
2022-10-07T04:45:23.963Z,9.13
2022-10-07T04:46:24.130Z,8.95
2022-10-07T04:47:23.970Z,9.09
2022-10-07T04:48:23.964Z,9.05
2022-10-07T04:49:23.997Z,9.11
2022-10-07T04:50:24.005Z,9.16
2022-10-07T04:51:24.107Z,9.21
2022-10-07T04:52:27.118Z,9.16
2022-10-07T04:53:23.982Z,9.19
2022-10-07T04:54:24.013Z,9.15
2022-10-07T04:55:24.006Z,9.13
2022-10-07T04:56:23.999Z,9.21
2022-10-07T04:57:23.985Z,9.16
2022-10-07T04:58:24.002Z,9.29
2022-10-07T04:59:32.616Z,9.29
2022-10-07T05:00:24.011Z,9.29
2022-10-07T05:01:24.332Z,9.31
2022-10-07T05:02:24.341Z,9.26
2022-10-07T05:03:27.092Z,9.33
2022-10-07T05:04:24.000Z,9.24
2022-10-07T05:05:24.018Z,9.26
2022-10-07T05:06:24.004Z,9.33
2022-10-07T05:07:23.998Z,9.37
2022-10-07T05:08:24.002Z,9.39
2022-10-07T05:09:24.008Z,9.39
2022-10-07T05:10:24.039Z,9.36
2022-10-07T05:11:24.011Z,9.4
2022-10-07T05:12:24.002Z,9.45
2022-10-07T05:13:24.033Z,9.49
2022-10-07T05:14:27.050Z,9.47
2022-10-07T05:15:24.033Z,9.47
2022-10-07T05:16:24.241Z,9.49
2022-10-07T05:17:24.010Z,9.51
2022-10-07T05:18:24.223Z,9.49
2022-10-07T05:19:24.018Z,9.54
2022-10-07T05:20:24.032Z,9.48
2022-10-07T05:21:24.110Z,9.47
2022-10-07T05:22:24.014Z,9.56
2022-10-07T05:23:31.284Z,9.48
2022-10-07T05:24:24.071Z,9.49
2022-10-07T05:25:26.927Z,9.58
2022-10-07T05:26:24.063Z,9.48
2022-10-07T05:27:24.032Z,9.29
2022-10-07T05:28:25.158Z,9.48
2022-10-07T05:29:24.066Z,9.51
2022-10-07T05:30:24.164Z,9.66
2022-10-07T05:31:24.397Z,9.42
2022-10-07T05:32:24.044Z,9.45
2022-10-07T05:33:24.030Z,9.59
2022-10-07T05:34:24.039Z,9.62
2022-10-07T05:35:24.032Z,9.52
2022-10-07T05:36:26.862Z,9.59
2022-10-07T05:37:24.111Z,9.56
2022-10-07T05:38:24.046Z,9.66
2022-10-07T05:39:24.054Z,9.7
2022-10-07T05:40:24.049Z,9.67
2022-10-07T05:41:24.795Z,9.66
2022-10-07T05:42:24.130Z,9.72
2022-10-07T05:43:24.056Z,9.7
2022-10-07T05:44:24.063Z,9.81
2022-10-07T05:45:24.065Z,9.67
2022-10-07T05:46:24.328Z,9.73
2022-10-07T05:47:26.903Z,9.73
2022-10-07T05:48:24.057Z,9.72
2022-10-07T05:49:24.073Z,9.7
2022-10-07T05:50:24.049Z,9.8
2022-10-07T05:51:24.095Z,9.73
2022-10-07T05:52:25.116Z,9.74
2022-10-07T05:53:24.095Z,9.74
2022-10-07T05:54:24.055Z,9.7
2022-10-07T05:55:24.077Z,9.72
2022-10-07T05:56:24.158Z,9.72
2022-10-07T05:57:24.118Z,9.77
2022-10-07T05:58:27.091Z,9.85
2022-10-07T05:59:24.088Z,9.8
2022-10-07T06:00:24.090Z,9.81
2022-10-07T06:01:24.090Z,9.9
2022-10-07T06:02:24.480Z,9.82
2022-10-07T06:03:27.480Z,9.87
2022-10-07T06:04:24.082Z,9.84
2022-10-07T06:05:24.082Z,9.84
2022-10-07T06:06:25.127Z,9.99
2022-10-07T06:07:31.742Z,9.97
2022-10-07T06:08:24.092Z,9.99
2022-10-07T06:09:26.966Z,9.97
2022-10-07T06:10:24.093Z,10.03
2022-10-07T06:11:24.123Z,10.09
2022-10-07T06:12:24.097Z,10.1
2022-10-07T06:13:24.178Z,10
2022-10-07T06:14:27.266Z,10.23
2022-10-07T06:15:24.106Z,10.03
2022-10-07T06:16:24.346Z,10.15
2022-10-07T06:17:24.103Z,10.18
2022-10-07T06:18:24.111Z,10.17
2022-10-07T06:19:24.220Z,10.05
2022-10-07T06:20:24.123Z,10.23
2022-10-07T06:21:24.178Z,10.21
2022-10-07T06:22:24.164Z,10.24
2022-10-07T06:23:24.106Z,10.25
2022-10-07T06:24:24.114Z,10.28
2022-10-07T06:25:27.207Z,10.36
2022-10-07T06:26:24.151Z,10.3
2022-10-07T06:27:24.139Z,10.27
2022-10-07T06:28:24.376Z,10.34
2022-10-07T06:29:24.177Z,10.23
2022-10-07T06:30:24.406Z,10.3
2022-10-07T06:31:24.290Z,10.24
2022-10-07T06:32:24.125Z,10.38
2022-10-07T06:33:24.130Z,10.38
2022-10-07T06:34:24.201Z,10.34
2022-10-07T06:35:26.817Z,10.38
2022-10-07T06:36:25.505Z,10.25
2022-10-07T06:37:24.150Z,10.42
2022-10-07T06:38:24.141Z,10.39
2022-10-07T06:39:24.137Z,10.33
2022-10-07T06:40:24.295Z,10.43
2022-10-07T06:41:24.205Z,10.49
2022-10-07T06:42:24.139Z,10.48
2022-10-07T06:43:24.147Z,10.49
2022-10-07T06:44:24.138Z,10.48
2022-10-07T06:45:24.182Z,10.43
2022-10-07T06:46:24.524Z,10.43
2022-10-07T06:47:27.198Z,10.51
2022-10-07T06:48:24.150Z,10.51
2022-10-07T06:49:24.156Z,10.46
2022-10-07T06:50:24.164Z,10.48
2022-10-07T06:51:24.252Z,10.57
2022-10-07T06:52:24.300Z,10.51
2022-10-07T06:53:24.168Z,10.61
2022-10-07T06:54:24.174Z,10.51
2022-10-07T06:55:24.171Z,10.58
2022-10-07T06:56:24.231Z,10.53
2022-10-07T06:57:49.319Z,10.49
2022-10-07T06:58:24.673Z,10.55
2022-10-07T06:59:24.165Z,10.61
2022-10-07T07:00:24.181Z,10.57
2022-10-07T07:01:24.501Z,10.57
2022-10-07T07:02:24.394Z,10.64
2022-10-07T07:03:24.183Z,10.67
2022-10-07T07:04:24.184Z,10.65
2022-10-07T07:05:24.191Z,10.61
2022-10-07T07:06:24.180Z,10.64
2022-10-07T07:07:24.435Z,10.55
2022-10-07T07:08:24.195Z,10.59
2022-10-07T07:09:24.180Z,10.69
2022-10-07T07:10:24.179Z,10.64
2022-10-07T07:11:24.206Z,10.62
2022-10-07T07:12:24.298Z,10.69
2022-10-07T07:13:24.286Z,10.72
2022-10-07T07:14:24.267Z,10.71
2022-10-07T07:15:24.302Z,10.68
2022-10-07T07:16:24.474Z,10.71
2022-10-07T07:17:24.292Z,10.62
2022-10-07T07:18:24.283Z,10.82
2022-10-07T07:19:26.969Z,10.71
2022-10-07T07:20:24.212Z,10.71
2022-10-07T07:21:24.251Z,10.83
2022-10-07T07:22:24.288Z,10.82
2022-10-07T07:23:24.234Z,10.82
2022-10-07T07:24:24.213Z,10.79
2022-10-07T07:25:24.248Z,10.8
2022-10-07T07:26:24.222Z,10.9
2022-10-07T07:27:24.216Z,10.92
2022-10-07T07:28:24.406Z,10.95
2022-10-07T07:29:24.304Z,10.94
2022-10-07T07:30:27.060Z,10.94
2022-10-07T07:31:24.454Z,10.92
2022-10-07T07:32:24.228Z,11
2022-10-07T07:33:27.372Z,11
2022-10-07T07:34:24.227Z,11
2022-10-07T07:35:24.267Z,10.9
2022-10-07T07:36:24.227Z,10.87
2022-10-07T07:37:24.223Z,10.95
2022-10-07T07:38:29.457Z,11
2022-10-07T07:39:24.240Z,11.07
2022-10-07T07:40:24.262Z,11.01
2022-10-07T07:41:27.141Z,11.01
2022-10-07T07:42:24.239Z,11.08
2022-10-07T07:43:24.241Z,11.01
2022-10-07T07:44:24.243Z,11.08
2022-10-07T07:45:24.356Z,11.15
2022-10-07T07:46:24.444Z,11.13
2022-10-07T07:47:24.254Z,11.12
2022-10-07T07:48:24.257Z,11.18
2022-10-07T07:49:24.322Z,11.07
2022-10-07T07:50:24.276Z,11.13
2022-10-07T07:51:24.253Z,11.15
2022-10-07T07:52:27.222Z,11.16
2022-10-07T07:53:24.249Z,11.15
2022-10-07T07:54:24.272Z,11.16
2022-10-07T07:55:24.266Z,11.27
2022-10-07T07:56:24.262Z,11.26
2022-10-07T07:57:24.288Z,11.2
2022-10-07T07:58:24.265Z,11.34
2022-10-07T07:59:24.264Z,11.18
2022-10-07T08:00:24.299Z,11.19
2022-10-07T08:01:24.488Z,11.37
2022-10-07T08:02:24.494Z,11.45
2022-10-07T08:03:25.345Z,11.38
2022-10-07T08:04:24.280Z,11.41
2022-10-07T08:05:28.465Z,11.45
2022-10-07T08:06:24.271Z,11.52
2022-10-07T08:07:24.275Z,11.43
2022-10-07T08:08:27.287Z,11.49
2022-10-07T08:09:24.280Z,11.51
2022-10-07T08:10:24.315Z,11.51
2022-10-07T08:11:24.275Z,11.44
2022-10-07T08:12:24.536Z,11.51
2022-10-07T08:13:24.281Z,11.52
2022-10-07T08:14:27.371Z,11.62
2022-10-07T08:15:24.297Z,11.6
2022-10-07T08:16:24.288Z,11.41
2022-10-07T08:17:24.495Z,11.41
2022-10-07T08:18:24.327Z,11.55
2022-10-07T08:19:27.080Z,11.6
2022-10-07T08:20:24.298Z,11.63
2022-10-07T08:21:24.320Z,11.52
2022-10-07T08:22:24.327Z,11.65
2022-10-07T08:23:24.334Z,11.73
2022-10-07T08:24:24.305Z,11.63
2022-10-07T08:25:27.507Z,11.71
2022-10-07T08:26:27.205Z,11.77
2022-10-07T08:27:24.321Z,11.77
2022-10-07T08:28:24.478Z,11.68
2022-10-07T08:29:24.321Z,11.81
2022-10-07T08:30:27.602Z,11.6
2022-10-07T08:31:24.509Z,11.62
2022-10-07T08:32:24.407Z,11.65
2022-10-07T08:33:24.349Z,11.67
2022-10-07T08:34:24.427Z,11.67
2022-10-07T08:35:24.343Z,11.86
2022-10-07T08:36:28.412Z,11.78
2022-10-07T08:37:24.345Z,11.85
2022-10-07T08:38:24.382Z,11.68
2022-10-07T08:39:24.351Z,11.86
2022-10-07T08:40:24.524Z,11.85
2022-10-07T08:41:27.455Z,11.97
2022-10-07T08:42:24.415Z,11.99
2022-10-07T08:43:24.362Z,12.11
2022-10-07T08:44:24.333Z,12.05
2022-10-07T08:45:24.337Z,11.96
2022-10-07T08:46:24.572Z,12.03
2022-10-07T08:47:24.382Z,12.14
2022-10-07T08:48:24.343Z,12.11
2022-10-07T08:49:24.366Z,12.14
2022-10-07T08:50:24.958Z,12.17
2022-10-07T08:51:24.347Z,12.2
2022-10-07T08:52:27.900Z,12.25
2022-10-07T08:53:24.345Z,12.25
2022-10-07T08:54:24.352Z,12.26
2022-10-07T08:55:24.353Z,12.26
2022-10-07T08:56:24.394Z,12.18
2022-10-07T08:57:24.459Z,12.35
2022-10-07T08:58:24.357Z,12.28
2022-10-07T08:59:24.359Z,12.23
2022-10-07T09:00:24.555Z,12.26
2022-10-07T09:01:24.607Z,12.37
2022-10-07T09:02:24.585Z,12.29
2022-10-07T09:03:29.814Z,12.35
2022-10-07T09:04:24.371Z,12.37
2022-10-07T09:05:24.421Z,12.35
2022-10-07T09:06:24.370Z,12.45
2022-10-07T09:07:24.618Z,12.51
2022-10-07T09:08:24.418Z,12.55
2022-10-07T09:09:24.374Z,12.45
2022-10-07T09:10:24.416Z,12.44
2022-10-07T09:11:24.382Z,12.5
2022-10-07T09:12:24.526Z,12.61
2022-10-07T09:13:24.423Z,12.45
2022-10-07T09:14:27.253Z,12.36
2022-10-07T09:15:24.436Z,12.61
2022-10-07T09:16:24.457Z,12.61
2022-10-07T09:17:24.423Z,12.62
2022-10-07T09:18:24.385Z,12.7
2022-10-07T09:19:24.391Z,12.54
2022-10-07T09:20:24.477Z,12.7
2022-10-07T09:21:24.414Z,12.75
2022-10-07T09:22:24.425Z,12.8
2022-10-07T09:23:24.398Z,12.73
2022-10-07T09:24:24.423Z,12.75
2022-10-07T09:25:24.508Z,12.68
2022-10-07T09:26:27.169Z,12.81
2022-10-07T09:27:24.477Z,12.83
2022-10-07T09:28:24.651Z,12.9
2022-10-07T09:29:24.440Z,12.84
2022-10-07T09:30:24.574Z,12.81
2022-10-07T09:31:24.774Z,12.86
2022-10-07T09:32:24.462Z,12.94
2022-10-07T09:33:24.451Z,12.99
2022-10-07T09:34:24.417Z,13.01
2022-10-07T09:35:24.433Z,13.05
2022-10-07T09:36:24.444Z,13.11
2022-10-07T09:37:24.466Z,13.06
2022-10-07T09:38:24.427Z,13.02
2022-10-07T09:39:24.427Z,13.13
2022-10-07T09:40:24.502Z,13.12
2022-10-07T09:41:27.888Z,13.24
2022-10-07T09:42:24.447Z,13.23
2022-10-07T09:43:24.647Z,13.23
2022-10-07T09:44:24.433Z,13.26
2022-10-07T09:45:24.579Z,13.36
2022-10-07T09:46:27.520Z,13.39
2022-10-07T09:47:24.470Z,13.42
2022-10-07T09:48:24.462Z,13.46
2022-10-07T09:49:28.802Z,13.31
2022-10-07T09:50:24.679Z,13.37
2022-10-07T09:51:24.450Z,13.42
2022-10-07T09:52:24.478Z,13.54
2022-10-07T09:53:24.476Z,13.55
2022-10-07T09:54:24.465Z,13.6
2022-10-07T09:55:24.452Z,13.73
2022-10-07T09:56:24.476Z,13.83
2022-10-07T09:57:27.302Z,13.67
2022-10-07T09:58:24.781Z,13.71
2022-10-07T09:59:24.462Z,13.64
2022-10-07T10:00:24.617Z,13.75
2022-10-07T10:01:24.500Z,13.68
2022-10-07T10:02:24.909Z,13.83
2022-10-07T10:03:24.793Z,13.76
2022-10-07T10:04:24.473Z,13.79
2022-10-07T10:05:24.490Z,13.91
2022-10-07T10:06:24.467Z,14.01
2022-10-07T10:07:24.487Z,14.07
2022-10-07T10:08:27.506Z,14.05
2022-10-07T10:09:24.951Z,14.11
2022-10-07T10:10:24.483Z,14.13
2022-10-07T10:11:24.478Z,14.16
2022-10-07T10:12:24.592Z,14.25
2022-10-07T10:13:28.495Z,14.23
2022-10-07T10:14:24.495Z,14.26
2022-10-07T10:15:24.478Z,14.18
2022-10-07T10:16:24.732Z,14.31
2022-10-07T10:17:24.540Z,14.41
2022-10-07T10:18:24.542Z,14.43
2022-10-07T10:19:27.587Z,14.45
2022-10-07T10:20:24.512Z,14.44
2022-10-07T10:21:24.578Z,14.48
2022-10-07T10:22:24.583Z,14.36
2022-10-07T10:23:24.494Z,14.55
2022-10-07T10:24:24.508Z,14.59
2022-10-07T10:25:24.584Z,14.7
2022-10-07T10:26:26.380Z,14.73
2022-10-07T10:27:25.566Z,14.82
2022-10-07T10:28:24.679Z,14.93
2022-10-07T10:29:24.508Z,14.92
2022-10-07T10:30:25.539Z,14.73
2022-10-07T10:31:24.776Z,14.81
2022-10-07T10:32:24.522Z,14.97
2022-10-07T10:33:24.595Z,14.97
2022-10-07T10:34:24.521Z,15.04
2022-10-07T10:35:30.335Z,15.08
2022-10-07T10:36:24.538Z,15.1
2022-10-07T10:37:24.410Z,15.07
2022-10-07T10:38:24.530Z,15.14
2022-10-07T10:39:24.741Z,15.12
2022-10-07T10:40:24.668Z,15.18
2022-10-07T10:41:27.707Z,15.05
2022-10-07T10:42:26.094Z,15.15
2022-10-07T10:43:24.544Z,15.17
2022-10-07T10:44:24.564Z,15.15
2022-10-07T10:45:24.546Z,15.29
2022-10-07T10:46:27.862Z,15.32
2022-10-07T10:47:24.599Z,15.39
2022-10-07T10:48:24.565Z,15.39
2022-10-07T10:49:24.584Z,15.47
2022-10-07T10:50:24.544Z,15.55
2022-10-07T10:51:24.560Z,15.45
2022-10-07T10:52:27.376Z,15.6
2022-10-07T10:53:24.589Z,15.62
2022-10-07T10:54:24.554Z,15.66
2022-10-07T10:55:24.613Z,15.69
2022-10-07T10:56:24.557Z,15.76
2022-10-07T10:57:27.338Z,15.83
2022-10-07T10:58:24.579Z,15.73
2022-10-07T10:59:24.575Z,15.8
2022-10-07T11:00:24.593Z,15.62
2022-10-07T11:01:24.665Z,15.72
2022-10-07T11:02:24.886Z,15.88
2022-10-07T11:03:24.814Z,16.02
2022-10-07T11:04:24.588Z,16.18
2022-10-07T11:05:24.650Z,16.21
2022-10-07T11:06:24.564Z,16.32
2022-10-07T11:07:24.576Z,16.26
2022-10-07T11:08:38.241Z,16.44
2022-10-07T11:09:27.439Z,16.5
2022-10-07T11:10:24.573Z,16.51
2022-10-07T11:11:24.592Z,16.46
2022-10-07T11:12:24.961Z,16.34
2022-10-07T11:13:24.621Z,16.44
2022-10-07T11:14:24.584Z,16.37
2022-10-07T11:15:24.587Z,16.46
2022-10-07T11:16:24.906Z,16.57
2022-10-07T11:17:24.581Z,16.69
2022-10-07T11:18:24.866Z,16.69
2022-10-07T11:19:27.603Z,16.68
2022-10-07T11:20:24.603Z,16.77
2022-10-07T11:21:24.684Z,16.82
2022-10-07T11:22:24.609Z,16.98
2022-10-07T11:23:24.635Z,16.94
2022-10-07T11:24:24.610Z,17.12
2022-10-07T11:25:24.609Z,17.16
2022-10-07T11:26:24.612Z,17.38
2022-10-07T11:27:24.607Z,17.41
2022-10-07T11:28:24.918Z,17.59
2022-10-07T11:29:24.646Z,17.52
2022-10-07T11:30:27.724Z,17.49
2022-10-07T11:31:24.917Z,17.73
2022-10-07T11:32:24.643Z,17.8
2022-10-07T11:33:24.643Z,17.84
2022-10-07T11:34:24.777Z,18.08
2022-10-07T11:35:24.634Z,18.26
2022-10-07T11:36:24.623Z,18.13
2022-10-07T11:37:24.651Z,18.43
2022-10-07T11:38:24.660Z,18.78
2022-10-07T11:39:24.630Z,18.78
2022-10-07T11:40:29.231Z,18.85
2022-10-07T11:41:27.642Z,19.09
2022-10-07T11:42:24.649Z,19.23
2022-10-07T11:43:24.645Z,19.39
2022-10-07T11:44:24.651Z,19.34
2022-10-07T11:45:24.673Z,19.24
2022-10-07T11:46:24.864Z,19.48
2022-10-07T11:47:24.648Z,19.57
2022-10-07T11:48:24.700Z,19.6
2022-10-07T11:49:24.653Z,19.85
2022-10-07T11:50:24.662Z,20.03
2022-10-07T11:51:24.662Z,19.99
2022-10-07T11:52:24.652Z,20.02
2022-10-07T11:53:24.703Z,20.18
2022-10-07T11:54:24.666Z,19.99
2022-10-07T11:55:24.662Z,20.15
2022-10-07T11:56:24.667Z,20.22
2022-10-07T11:57:24.669Z,20.37
2022-10-07T11:58:24.359Z,20.49
2022-10-07T11:59:24.669Z,20.6
2022-10-07T12:00:24.665Z,20.63
2022-10-07T12:01:24.723Z,20.73
2022-10-07T12:02:24.855Z,20.55
2022-10-07T12:03:25.259Z,20.5
2022-10-07T12:04:28.631Z,20.37
2022-10-07T12:05:24.700Z,20.58
2022-10-07T12:06:24.518Z,20.1
2022-10-07T12:07:24.684Z,20.42
2022-10-07T12:08:24.524Z,20.34
2022-10-07T12:09:24.722Z,20.39
2022-10-07T12:10:24.691Z,20.44
2022-10-07T12:11:24.728Z,20.3
2022-10-07T12:12:24.755Z,20.17
2022-10-07T12:13:27.463Z,20.11
2022-10-07T12:14:24.693Z,20.33
2022-10-07T12:15:24.717Z,20.04
2022-10-07T12:16:24.897Z,20.11
2022-10-07T12:17:24.737Z,20.4
2022-10-07T12:18:24.828Z,20.56
2022-10-07T12:19:31.501Z,20.82
2022-10-07T12:20:24.821Z,20.8
2022-10-07T12:21:27.550Z,20.95
2022-10-07T12:22:24.735Z,20.96
2022-10-07T12:23:25.956Z,20.75
2022-10-07T12:24:28.038Z,21.03
2022-10-07T12:25:24.826Z,21
2022-10-07T12:26:24.854Z,21.19
2022-10-07T12:27:24.908Z,21.13
2022-10-07T12:28:24.902Z,21.03
2022-10-07T12:29:24.848Z,21.13
2022-10-07T12:30:24.848Z,21.15
2022-10-07T12:31:25.039Z,20.73
2022-10-07T12:32:24.830Z,20.9
2022-10-07T12:33:24.862Z,21.08
2022-10-07T12:34:24.810Z,21.15
2022-10-07T12:35:27.956Z,20.95
2022-10-07T12:36:24.775Z,21.03
2022-10-07T12:37:24.792Z,21.15
2022-10-07T12:38:24.832Z,21.28
2022-10-07T12:39:24.930Z,21.47
2022-10-07T12:40:24.864Z,21.25
2022-10-07T12:41:24.914Z,21.33
2022-10-07T12:42:24.812Z,21.35
2022-10-07T12:43:24.972Z,21.41
2022-10-07T12:44:24.837Z,21.56
2022-10-07T12:45:24.957Z,21.22
2022-10-07T12:46:27.765Z,21.53
2022-10-07T12:47:24.748Z,21.54
2022-10-07T12:48:24.760Z,21.51
2022-10-07T12:49:24.794Z,21.53
2022-10-07T12:50:24.759Z,21.48
2022-10-07T12:51:27.668Z,21.51
2022-10-07T12:52:24.763Z,21.45
2022-10-07T12:53:24.758Z,21.22
2022-10-07T12:54:27.800Z,21.4
2022-10-07T12:55:30.790Z,21.48
2022-10-07T12:56:24.803Z,21.51
2022-10-07T12:57:27.781Z,21.5
2022-10-07T12:58:24.777Z,21.56
2022-10-07T12:59:24.795Z,21.59
2022-10-07T13:00:24.783Z,21.72
2022-10-07T13:01:25.173Z,21.6
2022-10-07T13:02:28.164Z,21.51
2022-10-07T13:03:24.791Z,21.44
2022-10-07T13:04:25.915Z,21.58
2022-10-07T13:05:24.800Z,21.56
2022-10-07T13:06:24.817Z,21.69
2022-10-07T13:07:24.816Z,21.72
2022-10-07T13:08:27.654Z,21.81
2022-10-07T13:09:24.814Z,21.81
2022-10-07T13:10:24.798Z,21.8
2022-10-07T13:11:24.844Z,21.88
2022-10-07T13:12:24.845Z,21.99
2022-10-07T13:13:27.875Z,21.54